sensor_id;sensor_type;location;lat;lon;timestamp;P1;durP1;ratioP1;P2;durP2;ratioP2
13291;SDS011;6714;53.056;8.690;2023-02-28T00:01:08;5.43;;;3.70;;
13291;SDS011;6714;53.056;8.690;2023-02-28T00:03:52;5.10;;;3.90;;
13291;SDS011;6714;53.056;8.690;2023-02-28T00:06:34;4.23;;;3.07;;
13291;SDS011;6714;53.056;8.690;2023-02-28T00:09:16;4.17;;;3.30;;
13291;SDS011;6714;53.056;8.690;2023-02-28T00:11:59;4.47;;;3.50;;
13291;SDS011;6714;53.056;8.690;2023-02-28T00:14:43;4.67;;;3.67;;
13291;SDS011;6714;53.056;8.690;2023-02-28T00:17:25;4.23;;;3.60;;
13291;SDS011;6714;53.056;8.690;2023-02-28T00:20:12;4.13;;;3.53;;
13291;SDS011;6714;53.056;8.690;2023-02-28T00:22:55;4.07;;;3.60;;
13291;SDS011;6714;53.056;8.690;2023-02-28T00:25:37;6.40;;;4.17;;
13291;SDS011;6714;53.056;8.690;2023-02-28T00:28:20;5.43;;;3.90;;
13291;SDS011;6714;53.056;8.690;2023-02-28T00:31:02;5.07;;;3.87;;
13291;SDS011;6714;53.056;8.690;2023-02-28T00:33:44;5.60;;;4.50;;
13291;SDS011;6714;53.056;8.690;2023-02-28T00:36:28;6.93;;;4.37;;
13291;SDS011;6714;53.056;8.690;2023-02-28T00:39:10;5.00;;;4.10;;
13291;SDS011;6714;53.056;8.690;2023-02-28T00:41:52;5.97;;;4.43;;
13291;SDS011;6714;53.056;8.690;2023-02-28T00:44:34;6.33;;;4.10;;
13291;SDS011;6714;53.056;8.690;2023-02-28T00:47:17;5.10;;;4.30;;
13291;SDS011;6714;53.056;8.690;2023-02-28T00:49:59;5.40;;;3.80;;
13291;SDS011;6714;53.056;8.690;2023-02-28T00:52:43;5.70;;;4.20;;
13291;SDS011;6714;53.056;8.690;2023-02-28T00:55:25;6.73;;;4.20;;
13291;SDS011;6714;53.056;8.690;2023-02-28T00:58:07;6.47;;;3.90;;
13291;SDS011;6714;53.056;8.690;2023-02-28T01:00:50;4.57;;;4.17;;
13291;SDS011;6714;53.056;8.690;2023-02-28T01:03:33;4.17;;;3.77;;
13291;SDS011;6714;53.056;8.690;2023-02-28T01:06:15;4.80;;;3.80;;
13291;SDS011;6714;53.056;8.690;2023-02-28T01:08:58;5.63;;;3.77;;
13291;SDS011;6714;53.056;8.690;2023-02-28T01:11:41;4.63;;;3.63;;
13291;SDS011;6714;53.056;8.690;2023-02-28T01:14:24;4.37;;;3.47;;
13291;SDS011;6714;53.056;8.690;2023-02-28T01:17:06;4.83;;;3.97;;
13291;SDS011;6714;53.056;8.690;2023-02-28T01:19:48;4.80;;;3.80;;
13291;SDS011;6714;53.056;8.690;2023-02-28T01:22:31;5.53;;;4.60;;
13291;SDS011;6714;53.056;8.690;2023-02-28T01:25:14;5.00;;;4.10;;
13291;SDS011;6714;53.056;8.690;2023-02-28T01:27:57;4.20;;;3.50;;
13291;SDS011;6714;53.056;8.690;2023-02-28T01:30:39;4.93;;;4.40;;
13291;SDS011;6714;53.056;8.690;2023-02-28T01:33:21;4.90;;;3.90;;
13291;SDS011;6714;53.056;8.690;2023-02-28T01:36:04;5.47;;;4.37;;
13291;SDS011;6714;53.056;8.690;2023-02-28T01:38:47;5.97;;;4.23;;
13291;SDS011;6714;53.056;8.690;2023-02-28T01:41:31;6.10;;;4.30;;
13291;SDS011;6714;53.056;8.690;2023-02-28T01:47:14;5.80;;;4.50;;
13291;SDS011;6714;53.056;8.690;2023-02-28T01:49:57;5.90;;;5.10;;
13291;SDS011;6714;53.056;8.690;2023-02-28T01:52:40;6.40;;;5.13;;
13291;SDS011;6714;53.056;8.690;2023-02-28T01:55:22;5.57;;;4.40;;
13291;SDS011;6714;53.056;8.690;2023-02-28T01:58:10;4.80;;;4.30;;
13291;SDS011;6714;53.056;8.690;2023-02-28T02:00:52;5.20;;;4.40;;
13291;SDS011;6714;53.056;8.690;2023-02-28T02:03:34;6.50;;;4.60;;
13291;SDS011;6714;53.056;8.690;2023-02-28T02:06:17;5.83;;;4.33;;
13291;SDS011;6714;53.056;8.690;2023-02-28T02:08:59;4.93;;;4.13;;
13291;SDS011;6714;53.056;8.690;2023-02-28T02:11:43;4.53;;;4.10;;
13291;SDS011;6714;53.056;8.690;2023-02-28T02:14:40;4.03;;;3.63;;
13291;SDS011;6714;53.056;8.690;2023-02-28T02:17:27;6.17;;;4.43;;
13291;SDS011;6714;53.056;8.690;2023-02-28T02:20:16;5.33;;;4.37;;
13291;SDS011;6714;53.056;8.690;2023-02-28T02:25:58;5.27;;;4.10;;
13291;SDS011;6714;53.056;8.690;2023-02-28T02:37:47;5.00;;;4.40;;
13291;SDS011;6714;53.056;8.690;2023-02-28T02:40:32;5.97;;;4.50;;
13291;SDS011;6714;53.056;8.690;2023-02-28T02:43:18;5.30;;;4.60;;
13291;SDS011;6714;53.056;8.690;2023-02-28T02:46:02;5.20;;;4.00;;
13291;SDS011;6714;53.056;8.690;2023-02-28T02:48:46;5.90;;;4.67;;
13291;SDS011;6714;53.056;8.690;2023-02-28T02:51:30;4.43;;;3.93;;
13291;SDS011;6714;53.056;8.690;2023-02-28T02:54:14;6.90;;;4.43;;
13291;SDS011;6714;53.056;8.690;2023-02-28T02:56:58;6.13;;;4.60;;
13291;SDS011;6714;53.056;8.690;2023-02-28T02:59:41;5.57;;;4.57;;
13291;SDS011;6714;53.056;8.690;2023-02-28T03:02:24;5.57;;;4.57;;
13291;SDS011;6714;53.056;8.690;2023-02-28T03:05:09;7.83;;;4.60;;
13291;SDS011;6714;53.056;8.690;2023-02-28T03:07:54;5.07;;;4.53;;
13291;SDS011;6714;53.056;8.690;2023-02-28T03:10:38;4.23;;;3.80;;
13291;SDS011;6714;53.056;8.690;2023-02-28T03:13:37;6.00;;;4.70;;
13291;SDS011;6714;53.056;8.690;2023-02-28T03:16:23;5.13;;;4.37;;
13291;SDS011;6714;53.056;8.690;2023-02-28T03:19:24;5.10;;;4.20;;
13291;SDS011;6714;53.056;8.690;2023-02-28T03:22:21;5.47;;;4.97;;
13291;SDS011;6714;53.056;8.690;2023-02-28T03:25:07;5.77;;;5.03;;
13291;SDS011;6714;53.056;8.690;2023-02-28T03:27:54;7.87;;;5.87;;
13291;SDS011;6714;53.056;8.690;2023-02-28T03:30:41;9.33;;;6.90;;
13291;SDS011;6714;53.056;8.690;2023-02-28T03:33:24;13.07;;;9.00;;
13291;SDS011;6714;53.056;8.690;2023-02-28T03:36:10;16.63;;;10.10;;
13291;SDS011;6714;53.056;8.690;2023-02-28T03:38:53;16.17;;;10.57;;
13291;SDS011;6714;53.056;8.690;2023-02-28T03:41:38;13.80;;;9.73;;
13291;SDS011;6714;53.056;8.690;2023-02-28T03:44:24;9.27;;;7.30;;
13291;SDS011;6714;53.056;8.690;2023-02-28T03:47:08;10.03;;;7.40;;
13291;SDS011;6714;53.056;8.690;2023-02-28T03:49:52;8.20;;;6.90;;
13291;SDS011;6714;53.056;8.690;2023-02-28T03:52:38;8.83;;;6.70;;
13291;SDS011;6714;53.056;8.690;2023-02-28T03:55:21;6.47;;;5.27;;
13291;SDS011;6714;53.056;8.690;2023-02-28T03:58:05;8.93;;;7.23;;
13291;SDS011;6714;53.056;8.690;2023-02-28T04:00:50;10.93;;;6.80;;
13291;SDS011;6714;53.056;8.690;2023-02-28T04:03:35;8.50;;;6.60;;
13291;SDS011;6714;53.056;8.690;2023-02-28T04:06:18;7.93;;;6.60;;
13291;SDS011;6714;53.056;8.690;2023-02-28T04:09:00;7.93;;;6.00;;
13291;SDS011;6714;53.056;8.690;2023-02-28T04:11:44;7.20;;;5.90;;
13291;SDS011;6714;53.056;8.690;2023-02-28T04:14:27;9.53;;;7.07;;
13291;SDS011;6714;53.056;8.690;2023-02-28T04:17:11;7.13;;;5.80;;
13291;SDS011;6714;53.056;8.690;2023-02-28T04:19:53;6.87;;;5.80;;
13291;SDS011;6714;53.056;8.690;2023-02-28T04:22:37;6.57;;;5.43;;
13291;SDS011;6714;53.056;8.690;2023-02-28T04:25:19;7.43;;;5.80;;
13291;SDS011;6714;53.056;8.690;2023-02-28T04:28:01;6.00;;;5.00;;
13291;SDS011;6714;53.056;8.690;2023-02-28T04:30:44;7.93;;;5.80;;
13291;SDS011;6714;53.056;8.690;2023-02-28T04:33:27;8.47;;;6.00;;
13291;SDS011;6714;53.056;8.690;2023-02-28T04:36:10;7.73;;;5.87;;
13291;SDS011;6714;53.056;8.690;2023-02-28T04:38:53;6.47;;;5.57;;
13291;SDS011;6714;53.056;8.690;2023-02-28T04:41:35;7.17;;;5.50;;
13291;SDS011;6714;53.056;8.690;2023-02-28T04:44:17;9.00;;;5.33;;
13291;SDS011;6714;53.056;8.690;2023-02-28T04:47:00;8.10;;;5.03;;
13291;SDS011;6714;53.056;8.690;2023-02-28T04:49:43;6.03;;;5.10;;
13291;SDS011;6714;53.056;8.690;2023-02-28T04:52:27;6.30;;;4.77;;
13291;SDS011;6714;53.056;8.690;2023-02-28T04:55:09;6.00;;;4.70;;
13291;SDS011;6714;53.056;8.690;2023-02-28T04:57:52;5.97;;;4.93;;
13291;SDS011;6714;53.056;8.690;2023-02-28T05:00:34;5.40;;;4.80;;
13291;SDS011;6714;53.056;8.690;2023-02-28T05:03:16;6.20;;;5.37;;
13291;SDS011;6714;53.056;8.690;2023-02-28T05:06:00;6.77;;;4.50;;
13291;SDS011;6714;53.056;8.690;2023-02-28T05:08:42;8.13;;;4.87;;
13291;SDS011;6714;53.056;8.690;2023-02-28T05:11:25;7.77;;;5.63;;
13291;SDS011;6714;53.056;8.690;2023-02-28T05:14:09;5.63;;;4.60;;
13291;SDS011;6714;53.056;8.690;2023-02-28T05:16:52;6.43;;;4.50;;
13291;SDS011;6714;53.056;8.690;2023-02-28T05:19:34;5.63;;;5.10;;
13291;SDS011;6714;53.056;8.690;2023-02-28T05:22:18;6.23;;;5.07;;
13291;SDS011;6714;53.056;8.690;2023-02-28T05:25:00;6.77;;;5.23;;
13291;SDS011;6714;53.056;8.690;2023-02-28T05:27:42;5.10;;;4.60;;
13291;SDS011;6714;53.056;8.690;2023-02-28T05:30:25;4.40;;;3.97;;
13291;SDS011;6714;53.056;8.690;2023-02-28T05:33:09;5.50;;;4.97;;
13291;SDS011;6714;53.056;8.690;2023-02-28T05:35:52;6.07;;;5.00;;
13291;SDS011;6714;53.056;8.690;2023-02-28T05:38:36;5.33;;;4.27;;
13291;SDS011;6714;53.056;8.690;2023-02-28T05:41:18;5.03;;;4.53;;
13291;SDS011;6714;53.056;8.690;2023-02-28T05:44:01;5.47;;;4.20;;
13291;SDS011;6714;53.056;8.690;2023-02-28T05:46:43;4.97;;;4.50;;
13291;SDS011;6714;53.056;8.690;2023-02-28T05:49:26;6.13;;;4.90;;
13291;SDS011;6714;53.056;8.690;2023-02-28T05:52:08;6.30;;;5.00;;
13291;SDS011;6714;53.056;8.690;2023-02-28T05:54:55;6.43;;;4.40;;
13291;SDS011;6714;53.056;8.690;2023-02-28T05:57:37;6.60;;;4.60;;
13291;SDS011;6714;53.056;8.690;2023-02-28T06:00:20;5.00;;;4.50;;
13291;SDS011;6714;53.056;8.690;2023-02-28T06:03:02;5.43;;;4.63;;
13291;SDS011;6714;53.056;8.690;2023-02-28T06:05:44;5.20;;;4.43;;
13291;SDS011;6714;53.056;8.690;2023-02-28T06:08:26;5.27;;;4.63;;
13291;SDS011;6714;53.056;8.690;2023-02-28T06:11:10;6.20;;;4.80;;
13291;SDS011;6714;53.056;8.690;2023-02-28T06:13:53;6.23;;;4.97;;
13291;SDS011;6714;53.056;8.690;2023-02-28T06:16:35;6.37;;;4.63;;
13291;SDS011;6714;53.056;8.690;2023-02-28T06:19:17;6.40;;;4.80;;
13291;SDS011;6714;53.056;8.690;2023-02-28T06:21:59;8.00;;;5.40;;
13291;SDS011;6714;53.056;8.690;2023-02-28T06:24:42;5.77;;;5.17;;
13291;SDS011;6714;53.056;8.690;2023-02-28T06:27:25;6.27;;;5.17;;
13291;SDS011;6714;53.056;8.690;2023-02-28T06:30:08;7.47;;;5.50;;
13291;SDS011;6714;53.056;8.690;2023-02-28T06:32:51;6.67;;;5.07;;
13291;SDS011;6714;53.056;8.690;2023-02-28T06:35:33;6.60;;;5.00;;
13291;SDS011;6714;53.056;8.690;2023-02-28T06:38:15;6.07;;;4.90;;
13291;SDS011;6714;53.056;8.690;2023-02-28T06:40:58;6.70;;;4.83;;
13291;SDS011;6714;53.056;8.690;2023-02-28T06:43:42;6.00;;;4.87;;
13291;SDS011;6714;53.056;8.690;2023-02-28T06:46:24;7.63;;;6.00;;
13291;SDS011;6714;53.056;8.690;2023-02-28T06:49:07;6.93;;;5.33;;
13291;SDS011;6714;53.056;8.690;2023-02-28T06:51:49;6.20;;;4.73;;
13291;SDS011;6714;53.056;8.690;2023-02-28T06:54:31;6.47;;;5.13;;
13291;SDS011;6714;53.056;8.690;2023-02-28T06:57:14;7.90;;;5.43;;
13291;SDS011;6714;53.056;8.690;2023-02-28T06:59:58;5.73;;;4.63;;
13291;SDS011;6714;53.056;8.690;2023-02-28T07:02:40;7.07;;;5.20;;
13291;SDS011;6714;53.056;8.690;2023-02-28T07:05:22;5.87;;;4.90;;
13291;SDS011;6714;53.056;8.690;2023-02-28T07:08:05;8.23;;;5.00;;
13291;SDS011;6714;53.056;8.690;2023-02-28T07:10:51;8.10;;;5.10;;
13291;SDS011;6714;53.056;8.690;2023-02-28T07:13:33;6.97;;;5.20;;
13291;SDS011;6714;53.056;8.690;2023-02-28T07:16:17;5.43;;;4.93;;
13291;SDS011;6714;53.056;8.690;2023-02-28T07:18:59;6.67;;;5.20;;
13291;SDS011;6714;53.056;8.690;2023-02-28T07:21:41;6.37;;;5.13;;
13291;SDS011;6714;53.056;8.690;2023-02-28T07:24:23;6.87;;;5.37;;
13291;SDS011;6714;53.056;8.690;2023-02-28T07:27:08;6.93;;;5.10;;
13291;SDS011;6714;53.056;8.690;2023-02-28T07:29:50;6.27;;;5.10;;
13291;SDS011;6714;53.056;8.690;2023-02-28T07:32:34;6.27;;;5.43;;
13291;SDS011;6714;53.056;8.690;2023-02-28T07:35:17;7.07;;;5.50;;
13291;SDS011;6714;53.056;8.690;2023-02-28T07:38:00;6.73;;;5.10;;
13291;SDS011;6714;53.056;8.690;2023-02-28T07:40:42;6.77;;;5.50;;
13291;SDS011;6714;53.056;8.690;2023-02-28T07:43:25;6.03;;;5.40;;
13291;SDS011;6714;53.056;8.690;2023-02-28T07:46:08;7.43;;;5.40;;
13291;SDS011;6714;53.056;8.690;2023-02-28T07:48:52;5.77;;;4.80;;
13291;SDS011;6714;53.056;8.690;2023-02-28T07:51:35;6.63;;;5.33;;
13291;SDS011;6714;53.056;8.690;2023-02-28T07:54:17;7.57;;;5.57;;
13291;SDS011;6714;53.056;8.690;2023-02-28T07:56:59;5.93;;;5.27;;
13291;SDS011;6714;53.056;8.690;2023-02-28T07:59:41;8.60;;;5.50;;
13291;SDS011;6714;53.056;8.690;2023-02-28T08:02:24;6.00;;;4.67;;
13291;SDS011;6714;53.056;8.690;2023-02-28T08:05:08;7.43;;;5.07;;
13291;SDS011;6714;53.056;8.690;2023-02-28T08:07:50;6.40;;;5.30;;
13291;SDS011;6714;53.056;8.690;2023-02-28T08:10:33;7.00;;;5.30;;
13291;SDS011;6714;53.056;8.690;2023-02-28T08:13:15;7.63;;;5.70;;
13291;SDS011;6714;53.056;8.690;2023-02-28T08:15:58;6.93;;;5.57;;
13291;SDS011;6714;53.056;8.690;2023-02-28T08:18:42;6.43;;;5.70;;
13291;SDS011;6714;53.056;8.690;2023-02-28T08:21:26;8.37;;;5.27;;
13291;SDS011;6714;53.056;8.690;2023-02-28T08:24:08;6.30;;;4.47;;
13291;SDS011;6714;53.056;8.690;2023-02-28T08:26:51;9.23;;;5.57;;
13291;SDS011;6714;53.056;8.690;2023-02-28T08:29:33;6.87;;;5.07;;
13291;SDS011;6714;53.056;8.690;2023-02-28T08:32:15;8.23;;;5.30;;
13291;SDS011;6714;53.056;8.690;2023-02-28T08:34:57;6.77;;;4.37;;
13291;SDS011;6714;53.056;8.690;2023-02-28T08:37:41;5.23;;;4.70;;
13291;SDS011;6714;53.056;8.690;2023-02-28T08:40:23;6.37;;;4.27;;
13291;SDS011;6714;53.056;8.690;2023-02-28T08:43:05;5.57;;;4.13;;
13291;SDS011;6714;53.056;8.690;2023-02-28T08:45:48;3.83;;;3.50;;
13291;SDS011;6714;53.056;8.690;2023-02-28T08:48:33;4.67;;;3.70;;
13291;SDS011;6714;53.056;8.690;2023-02-28T08:51:17;4.93;;;3.60;;
13291;SDS011;6714;53.056;8.690;2023-02-28T08:54:07;3.60;;;3.30;;
13291;SDS011;6714;53.056;8.690;2023-02-28T08:56:50;6.67;;;3.63;;
13291;SDS011;6714;53.056;8.690;2023-02-28T08:59:32;3.83;;;2.70;;
13291;SDS011;6714;53.056;8.690;2023-02-28T09:02:15;3.73;;;3.10;;
13291;SDS011;6714;53.056;8.690;2023-02-28T09:04:57;4.23;;;2.87;;
13291;SDS011;6714;53.056;8.690;2023-02-28T09:07:39;3.63;;;3.13;;
13291;SDS011;6714;53.056;8.690;2023-02-28T09:10:23;5.17;;;2.77;;
13291;SDS011;6714;53.056;8.690;2023-02-28T09:13:06;2.90;;;2.60;;
13291;SDS011;6714;53.056;8.690;2023-02-28T09:15:48;2.80;;;2.60;;
13291;SDS011;6714;53.056;8.690;2023-02-28T09:18:30;2.87;;;2.53;;
13291;SDS011;6714;53.056;8.690;2023-02-28T09:21:13;7.07;;;3.63;;
13291;SDS011;6714;53.056;8.690;2023-02-28T09:23:56;4.63;;;3.30;;
13291;SDS011;6714;53.056;8.690;2023-02-28T09:26:40;5.13;;;2.50;;
13291;SDS011;6714;53.056;8.690;2023-02-28T09:29:22;2.70;;;2.10;;
13291;SDS011;6714;53.056;8.690;2023-02-28T09:32:04;2.80;;;1.30;;
13291;SDS011;6714;53.056;8.690;2023-02-28T09:34:46;4.17;;;1.90;;
13291;SDS011;6714;53.056;8.690;2023-02-28T09:37:29;1.73;;;1.63;;
13291;SDS011;6714;53.056;8.690;2023-02-28T09:40:11;1.50;;;1.40;;
13291;SDS011;6714;53.056;8.690;2023-02-28T09:42:56;2.17;;;1.80;;
13291;SDS011;6714;53.056;8.690;2023-02-28T09:45:39;1.93;;;1.77;;
13291;SDS011;6714;53.056;8.690;2023-02-28T09:48:23;2.07;;;1.87;;
13291;SDS011;6714;53.056;8.690;2023-02-28T09:51:09;3.20;;;2.30;;
13291;SDS011;6714;53.056;8.690;2023-02-28T09:53:55;2.00;;;1.80;;
13291;SDS011;6714;53.056;8.690;2023-02-28T09:56:38;3.60;;;2.27;;
13291;SDS011;6714;53.056;8.690;2023-02-28T09:59:29;1.80;;;1.70;;
13291;SDS011;6714;53.056;8.690;2023-02-28T10:02:17;2.10;;;2.00;;
13291;SDS011;6714;53.056;8.690;2023-02-28T10:05:02;2.33;;;1.93;;
13291;SDS011;6714;53.056;8.690;2023-02-28T10:07:50;1.80;;;1.70;;
13291;SDS011;6714;53.056;8.690;2023-02-28T10:10:37;3.57;;;1.77;;
13291;SDS011;6714;53.056;8.690;2023-02-28T10:13:22;1.63;;;1.53;;
13291;SDS011;6714;53.056;8.690;2023-02-28T10:16:08;1.90;;;1.60;;
13291;SDS011;6714;53.056;8.690;2023-02-28T10:18:53;2.50;;;1.60;;
13291;SDS011;6714;53.056;8.690;2023-02-28T10:21:37;2.10;;;1.50;;
13291;SDS011;6714;53.056;8.690;2023-02-28T10:24:21;1.87;;;1.73;;
13291;SDS011;6714;53.056;8.690;2023-02-28T10:27:09;1.93;;;1.53;;
13291;SDS011;6714;53.056;8.690;2023-02-28T10:29:54;2.27;;;2.00;;
13291;SDS011;6714;53.056;8.690;2023-02-28T10:32:38;3.77;;;1.90;;
13291;SDS011;6714;53.056;8.690;2023-02-28T10:35:22;3.23;;;1.83;;
13291;SDS011;6714;53.056;8.690;2023-02-28T10:38:08;2.00;;;1.80;;
13291;SDS011;6714;53.056;8.690;2023-02-28T10:41:06;2.43;;;1.97;;
13291;SDS011;6714;53.056;8.690;2023-02-28T10:43:49;2.07;;;1.70;;
13291;SDS011;6714;53.056;8.690;2023-02-28T10:46:31;2.47;;;2.07;;
13291;SDS011;6714;53.056;8.690;2023-02-28T10:49:20;2.40;;;2.20;;
13291;SDS011;6714;53.056;8.690;2023-02-28T10:52:02;2.60;;;1.90;;
13291;SDS011;6714;53.056;8.690;2023-02-28T10:54:44;3.27;;;2.00;;
13291;SDS011;6714;53.056;8.690;2023-02-28T10:57:27;2.00;;;1.80;;
13291;SDS011;6714;53.056;8.690;2023-02-28T11:00:14;1.80;;;1.70;;
13291;SDS011;6714;53.056;8.690;2023-02-28T11:02:56;1.90;;;1.80;;
13291;SDS011;6714;53.056;8.690;2023-02-28T11:05:40;2.93;;;2.00;;
13291;SDS011;6714;53.056;8.690;2023-02-28T11:08:23;2.23;;;1.93;;
13291;SDS011;6714;53.056;8.690;2023-02-28T11:11:06;3.27;;;2.03;;
13291;SDS011;6714;53.056;8.690;2023-02-28T11:13:50;2.27;;;2.07;;
13291;SDS011;6714;53.056;8.690;2023-02-28T11:16:33;2.07;;;1.70;;
13291;SDS011;6714;53.056;8.690;2023-02-28T11:19:18;1.93;;;1.73;;
13291;SDS011;6714;53.056;8.690;2023-02-28T11:22:02;1.80;;;1.70;;
13291;SDS011;6714;53.056;8.690;2023-02-28T11:24:46;1.70;;;1.60;;
13291;SDS011;6714;53.056;8.690;2023-02-28T11:27:43;2.37;;;1.97;;
13291;SDS011;6714;53.056;8.690;2023-02-28T11:30:31;1.63;;;1.40;;
13291;SDS011;6714;53.056;8.690;2023-02-28T11:33:22;1.70;;;1.60;;
13291;SDS011;6714;53.056;8.690;2023-02-28T11:36:08;2.87;;;1.90;;
13291;SDS011;6714;53.056;8.690;2023-02-28T11:38:53;1.90;;;1.67;;
13291;SDS011;6714;53.056;8.690;2023-02-28T11:41:39;2.17;;;1.80;;
13291;SDS011;6714;53.056;8.690;2023-02-28T11:44:32;1.90;;;1.80;;
13291;SDS011;6714;53.056;8.690;2023-02-28T11:47:17;1.80;;;1.70;;
13291;SDS011;6714;53.056;8.690;2023-02-28T11:50:04;2.13;;;1.90;;
13291;SDS011;6714;53.056;8.690;2023-02-28T11:52:52;3.33;;;2.30;;
13291;SDS011;6714;53.056;8.690;2023-02-28T11:55:36;2.20;;;2.00;;
13291;SDS011;6714;53.056;8.690;2023-02-28T12:01:28;1.93;;;1.60;;
13291;SDS011;6714;53.056;8.690;2023-02-28T12:04:17;2.07;;;1.80;;
13291;SDS011;6714;53.056;8.690;2023-02-28T12:07:03;1.60;;;1.50;;
13291;SDS011;6714;53.056;8.690;2023-02-28T12:09:53;2.20;;;1.73;;
13291;SDS011;6714;53.056;8.690;2023-02-28T12:12:41;3.13;;;1.83;;
13291;SDS011;6714;53.056;8.690;2023-02-28T12:15:38;1.87;;;1.77;;
13291;SDS011;6714;53.056;8.690;2023-02-28T12:18:32;2.03;;;1.80;;
13291;SDS011;6714;53.056;8.690;2023-02-28T12:21:20;1.90;;;1.80;;
13291;SDS011;6714;53.056;8.690;2023-02-28T12:24:12;2.07;;;1.60;;
13291;SDS011;6714;53.056;8.690;2023-02-28T12:26:59;2.33;;;1.70;;
13291;SDS011;6714;53.056;8.690;2023-02-28T12:29:46;1.67;;;1.50;;
13291;SDS011;6714;53.056;8.690;2023-02-28T12:32:30;1.60;;;1.50;;
13291;SDS011;6714;53.056;8.690;2023-02-28T12:35:14;1.60;;;1.27;;
13291;SDS011;6714;53.056;8.690;2023-02-28T12:37:59;1.53;;;1.43;;
13291;SDS011;6714;53.056;8.690;2023-02-28T12:40:45;1.97;;;1.77;;
13291;SDS011;6714;53.056;8.690;2023-02-28T12:43:28;1.60;;;1.50;;
13291;SDS011;6714;53.056;8.690;2023-02-28T12:46:14;3.03;;;1.80;;
13291;SDS011;6714;53.056;8.690;2023-02-28T12:48:58;2.30;;;1.70;;
13291;SDS011;6714;53.056;8.690;2023-02-28T12:51:41;2.53;;;2.00;;
13291;SDS011;6714;53.056;8.690;2023-02-28T12:54:24;1.50;;;1.40;;
13291;SDS011;6714;53.056;8.690;2023-02-28T12:57:09;2.07;;;1.60;;
13291;SDS011;6714;53.056;8.690;2023-02-28T12:59:53;2.03;;;1.70;;
13291;SDS011;6714;53.056;8.690;2023-02-28T13:05:41;2.30;;;1.90;;
13291;SDS011;6714;53.056;8.690;2023-02-28T13:11:41;1.87;;;1.63;;
13291;SDS011;6714;53.056;8.690;2023-02-28T13:14:24;1.83;;;1.53;;
13291;SDS011;6714;53.056;8.690;2023-02-28T13:17:10;1.90;;;1.80;;
13291;SDS011;6714;53.056;8.690;2023-02-28T13:19:56;1.90;;;1.80;;
13291;SDS011;6714;53.056;8.690;2023-02-28T13:22:41;2.17;;;1.80;;
13291;SDS011;6714;53.056;8.690;2023-02-28T13:37:49;1.60;;;1.50;;
13291;SDS011;6714;53.056;8.690;2023-02-28T13:40:32;2.10;;;1.90;;
13291;SDS011;6714;53.056;8.690;2023-02-28T13:43:18;1.97;;;1.87;;
13291;SDS011;6714;53.056;8.690;2023-02-28T13:46:05;1.67;;;1.57;;
13291;SDS011;6714;53.056;8.690;2023-02-28T13:48:49;1.77;;;1.40;;
13291;SDS011;6714;53.056;8.690;2023-02-28T13:51:38;1.50;;;1.40;;
13291;SDS011;6714;53.056;8.690;2023-02-28T13:54:26;1.70;;;1.60;;
13291;SDS011;6714;53.056;8.690;2023-02-28T13:57:12;1.90;;;1.70;;
13291;SDS011;6714;53.056;8.690;2023-02-28T14:00:00;1.50;;;1.40;;
13291;SDS011;6714;53.056;8.690;2023-02-28T14:02:50;1.60;;;1.50;;
13291;SDS011;6714;53.056;8.690;2023-02-28T14:05:35;1.37;;;1.27;;
13291;SDS011;6714;53.056;8.690;2023-02-28T14:08:19;1.33;;;1.27;;
13291;SDS011;6714;53.056;8.690;2023-02-28T14:11:05;1.33;;;1.23;;
13291;SDS011;6714;53.056;8.690;2023-02-28T14:13:49;1.40;;;1.30;;
13291;SDS011;6714;53.056;8.690;2023-02-28T14:16:38;1.63;;;1.20;;
13291;SDS011;6714;53.056;8.690;2023-02-28T14:19:23;1.30;;;1.30;;
13291;SDS011;6714;53.056;8.690;2023-02-28T14:22:09;1.63;;;1.47;;
13291;SDS011;6714;53.056;8.690;2023-02-28T14:24:59;1.57;;;1.47;;
13291;SDS011;6714;53.056;8.690;2023-02-28T14:27:49;1.30;;;1.20;;
13291;SDS011;6714;53.056;8.690;2023-02-28T14:30:52;1.57;;;1.47;;
13291;SDS011;6714;53.056;8.690;2023-02-28T14:33:42;1.43;;;1.20;;
13291;SDS011;6714;53.056;8.690;2023-02-28T14:36:26;1.40;;;1.30;;
13291;SDS011;6714;53.056;8.690;2023-02-28T14:39:11;1.40;;;1.30;;
13291;SDS011;6714;53.056;8.690;2023-02-28T14:41:54;1.33;;;1.23;;
13291;SDS011;6714;53.056;8.690;2023-02-28T14:44:37;1.60;;;1.50;;
13291;SDS011;6714;53.056;8.690;2023-02-28T14:47:19;1.90;;;1.40;;
13291;SDS011;6714;53.056;8.690;2023-02-28T14:50:03;1.50;;;1.40;;
13291;SDS011;6714;53.056;8.690;2023-02-28T14:52:46;2.77;;;1.33;;
13291;SDS011;6714;53.056;8.690;2023-02-28T14:55:30;1.70;;;1.60;;
13291;SDS011;6714;53.056;8.690;2023-02-28T14:58:17;1.37;;;1.27;;
13291;SDS011;6714;53.056;8.690;2023-02-28T15:01:03;1.50;;;1.40;;
13291;SDS011;6714;53.056;8.690;2023-02-28T15:03:45;1.53;;;1.37;;
13291;SDS011;6714;53.056;8.690;2023-02-28T15:06:28;1.30;;;1.27;;
13291;SDS011;6714;53.056;8.690;2023-02-28T15:09:11;1.30;;;1.20;;
13291;SDS011;6714;53.056;8.690;2023-02-28T15:11:55;1.37;;;1.20;;
13291;SDS011;6714;53.056;8.690;2023-02-28T15:14:38;1.90;;;1.40;;
13291;SDS011;6714;53.056;8.690;2023-02-28T15:17:25;1.53;;;1.40;;
13291;SDS011;6714;53.056;8.690;2023-02-28T15:20:10;1.87;;;1.50;;
13291;SDS011;6714;53.056;8.690;2023-02-28T15:22:52;2.10;;;1.47;;
13291;SDS011;6714;53.056;8.690;2023-02-28T15:25:37;1.40;;;1.30;;
13291;SDS011;6714;53.056;8.690;2023-02-28T15:28:20;1.80;;;1.43;;
13291;SDS011;6714;53.056;8.690;2023-02-28T15:31:13;1.20;;;1.10;;
13291;SDS011;6714;53.056;8.690;2023-02-28T15:34:03;2.57;;;1.50;;
13291;SDS011;6714;53.056;8.690;2023-02-28T15:36:46;1.60;;;1.40;;
13291;SDS011;6714;53.056;8.690;2023-02-28T15:39:28;1.20;;;1.20;;
13291;SDS011;6714;53.056;8.690;2023-02-28T15:42:11;2.33;;;1.50;;
13291;SDS011;6714;53.056;8.690;2023-02-28T15:44:53;1.33;;;1.30;;
13291;SDS011;6714;53.056;8.690;2023-02-28T15:47:37;1.60;;;1.47;;
13291;SDS011;6714;53.056;8.690;2023-02-28T15:50:20;1.20;;;1.20;;
13291;SDS011;6714;53.056;8.690;2023-02-28T15:53:03;1.73;;;1.60;;
13291;SDS011;6714;53.056;8.690;2023-02-28T15:55:45;1.40;;;1.40;;
13291;SDS011;6714;53.056;8.690;2023-02-28T15:58:34;1.30;;;1.30;;
13291;SDS011;6714;53.056;8.690;2023-02-28T16:01:19;1.60;;;1.50;;
13291;SDS011;6714;53.056;8.690;2023-02-28T16:04:06;2.20;;;1.67;;
13291;SDS011;6714;53.056;8.690;2023-02-28T16:07:04;2.33;;;1.60;;
13291;SDS011;6714;53.056;8.690;2023-02-28T16:09:47;1.97;;;1.60;;
13291;SDS011;6714;53.056;8.690;2023-02-28T16:12:30;2.53;;;1.50;;
13291;SDS011;6714;53.056;8.690;2023-02-28T16:15:17;2.57;;;1.40;;
13291;SDS011;6714;53.056;8.690;2023-02-28T16:18:00;1.63;;;1.53;;
13291;SDS011;6714;53.056;8.690;2023-02-28T16:20:42;1.33;;;1.23;;
13291;SDS011;6714;53.056;8.690;2023-02-28T16:23:27;1.70;;;1.60;;
13291;SDS011;6714;53.056;8.690;2023-02-28T16:26:12;1.40;;;1.30;;
13291;SDS011;6714;53.056;8.690;2023-02-28T16:28:58;1.30;;;1.20;;
13291;SDS011;6714;53.056;8.690;2023-02-28T16:31:41;1.73;;;1.60;;
13291;SDS011;6714;53.056;8.690;2023-02-28T16:34:24;1.50;;;1.40;;
13291;SDS011;6714;53.056;8.690;2023-02-28T16:37:09;1.20;;;1.20;;
13291;SDS011;6714;53.056;8.690;2023-02-28T16:40:09;2.20;;;1.40;;
13291;SDS011;6714;53.056;8.690;2023-02-28T16:43:00;1.50;;;1.40;;
13291;SDS011;6714;53.056;8.690;2023-02-28T16:45:43;1.33;;;1.23;;
13291;SDS011;6714;53.056;8.690;2023-02-28T16:48:25;1.40;;;1.30;;
13291;SDS011;6714;53.056;8.690;2023-02-28T16:51:14;1.77;;;1.30;;
13291;SDS011;6714;53.056;8.690;2023-02-28T16:53:59;2.87;;;1.43;;
13291;SDS011;6714;53.056;8.690;2023-02-28T16:56:45;1.37;;;1.27;;
13291;SDS011;6714;53.056;8.690;2023-02-28T16:59:28;2.50;;;1.70;;
13291;SDS011;6714;53.056;8.690;2023-02-28T17:02:10;1.70;;;1.60;;
13291;SDS011;6714;53.056;8.690;2023-02-28T17:04:54;2.73;;;1.60;;
13291;SDS011;6714;53.056;8.690;2023-02-28T17:07:36;4.43;;;1.60;;
13291;SDS011;6714;53.056;8.690;2023-02-28T17:10:22;2.10;;;1.47;;
13291;SDS011;6714;53.056;8.690;2023-02-28T17:13:06;1.83;;;1.73;;
13291;SDS011;6714;53.056;8.690;2023-02-28T17:15:52;1.50;;;1.40;;
13291;SDS011;6714;53.056;8.690;2023-02-28T17:18:35;1.60;;;1.50;;
13291;SDS011;6714;53.056;8.690;2023-02-28T17:21:19;1.70;;;1.60;;